Kristin D — C6XA6 — position and weather

sailwx.info

Track history (hours):
 
Tides and Currents Weather Stations Pressure Air Temp Water Temp Dewpoint Dewpoint Depression Visibility Wind Speed Wind Dir Waves Ship Positions

Kristin D

Last reported at 2017-Jan-16 14:15 UTC. Time now 2017-Jan-22 20:26 UTC.
Position N 66°10' E 013°03'.

Length 90 m; draft 4.4 m.

Type: Cargo ship. MMSI: 311003700.

Date/timePositionNaut miles runAvg speedWind from/ knotsBaromVisibWave heightAir tempDewpointWater temp
2017-Jan-16 14:15N 66°10' E 013°03'7 9.3
2017-Jan-16 13:27N 66°12' E 012°46'910.0
2017-Jan-16 12:33N 66°15' E 012°25'1110.5
2017-Jan-16 11:33N 66°15' E 011°59'  
2017-Jan-13 07:15N 58°54' E 004°47'811.8
2017-Jan-13 06:33N 58°46' E 004°48'1211.7
2017-Jan-13 05:33N 58°35' E 004°50'26911.2
2017-Jan-12 05:33N 55°34' W 001°18'8 8.4
2017-Jan-12 04:34N 55°27' W 001°27'8 8.0
2017-Jan-12 03:33N 55°20' W 001°24'7 7.5
2017-Jan-12 02:34N 55°12' W 001°21'7 6.6
2017-Jan-12 01:34N 55°06' W 001°17'6 6.2
2017-Jan-12 00:34N 55°01' W 001°11'6 6.3
2017-Jan-11 23:33N 54°56' W 001°03'32 6.3
2017-Jan-11 18:31N 54°31' W 000°31'5 5.5
2017-Jan-11 17:34N 54°26' W 000°26'5 4.6
2017-Jan-11 16:34N 54°22' W 000°22'5 5.2
2017-Jan-11 15:34N 54°18' W 000°18'5 4.6
2017-Jan-11 14:33N 54°14' W 000°12'4 3.5
2017-Jan-11 13:34N 54°12' W 000°09'3 3.3
2017-Jan-11 12:33N 54°10' W 000°04'4 3.6
2017-Jan-11 11:33N 54°07' E 000°00'5 4.9
2017-Jan-11 10:34N 54°03' E 000°05'6711.1
2017-Jan-11 04:34N 53°10' E 001°12'1111.0
2017-Jan-11 03:33N 53°01' E 001°24'1212.1
2017-Jan-11 02:33N 52°53' E 001°38'1413.6
2017-Jan-11 01:33N 52°43' E 001°54'7612.5
2017-Jan-10 19:29N 51°45' E 003°12'1010.9
2017-Jan-10 18:33N 51°37' E 003°23'1111.2
2017-Jan-10 17:33N 51°27' E 003°32'1212.0
2017-Jan-10 16:31N 51°20' E 003°49'1 0.7
2017-Jan-10 15:33N 51°20' E 003°49'0 0.5
2017-Jan-10 14:32N 51°19' E 003°50'0 0.0
2017-Jan-10 13:29N 51°19' E 003°50'0 0.0
2017-Jan-10 12:32N 51°19' E 003°50'0 0.0
2017-Jan-10 11:29N 51°19' E 003°50'0 0.0
2017-Jan-10 10:29N 51°19' E 003°50'0 0.0
2017-Jan-10 09:32N 51°19' E 003°50'0 0.0
2017-Jan-10 08:32N 51°19' E 003°50'0 0.0
2017-Jan-10 07:32N 51°19' E 003°50'0 0.0
2017-Jan-10 06:32N 51°19' E 003°50'0 0.0
2017-Jan-10 05:32N 51°19' E 003°50'0 0.0
2017-Jan-10 04:26N 51°19' E 003°50'0 0.0
2017-Jan-10 03:29N 51°19' E 003°50'0 0.0
2017-Jan-10 02:29N 51°19' E 003°50'0 0.0
2017-Jan-10 01:26N 51°19' E 003°50'0 0.0
2017-Jan-10 00:29N 51°19' E 003°50'0 0.0
2017-Jan-09 23:29N 51°19' E 003°50'0 0.0
2017-Jan-09 22:28N 51°19' E 003°50'0 0.0
2017-Jan-09 21:31N 51°19' E 003°50'0 0.0
2017-Jan-09 20:31N 51°19' E 003°50'0 0.0
2017-Jan-09 19:28N 51°19' E 003°50'0 0.0
2017-Jan-09 18:31N 51°19' E 003°50'0 0.0
2017-Jan-09 17:28N 51°19' E 003°50'0 0.0
2017-Jan-09 16:28N 51°19' E 003°50'0 0.0
2017-Jan-09 15:25N 51°19' E 003°50'0 0.0
2017-Jan-09 14:28N 51°19' E 003°50'0 0.0
2017-Jan-09 13:28N 51°19' E 003°50'0 0.0
2017-Jan-09 12:31N 51°19' E 003°50'0 0.0
2017-Jan-09 11:28N 51°19' E 003°50'0 0.0
2017-Jan-09 10:31N 51°19' E 003°50'0 0.0
2017-Jan-09 09:28N 51°19' E 003°50'0 0.0
2017-Jan-09 08:31N 51°19' E 003°50'0 0.0
2017-Jan-09 07:31N 51°19' E 003°50'0 0.0
2017-Jan-09 06:31N 51°19' E 003°50'0 0.0
2017-Jan-09 05:19N 51°19' E 003°50'0 0.0
2017-Jan-09 04:31N 51°19' E 003°50'0 0.0
2017-Jan-09 03:31N 51°19' E 003°50'0 0.2
2017-Jan-09 02:33N 51°19' E 003°49'3 2.9
2017-Jan-09 01:33N 51°21' E 003°46'9 8.6
2017-Jan-09 00:33N 51°26' E 003°34'8 7.6
2017-Jan-08 23:33N 51°31' E 003°26'1010.2
2017-Jan-08 22:33N 51°40' E 003°18'7 5.8
2017-Jan-08 21:25N 51°46' E 003°14'4 4.1
2017-Jan-08 20:25N 51°50' E 003°16'51 9.5
2017-Jan-08 15:03N 52°40' E 003°34'711.8
2017-Jan-08 14:29N 52°45' E 003°41'2110.9
2017-Jan-08 12:31N 53°01' E 004°05'4410.9
2017-Jan-08 08:32N 53°38' E 004°41'1212.0
2017-Jan-08 07:31N 53°50' E 004°49'1111.8
2017-Jan-08 06:33N 54°00' E 004°56'26911.2
2017-Jan-07 06:33N 58°29' E 004°50'1110.9
2017-Jan-07 05:33N 58°40' E 004°48'1110.6
2017-Jan-07 04:33N 58°51' E 004°45'  
Track history (hours):
 
Tides and Currents Weather Stations Pressure Air Temp Water Temp Dewpoint Dewpoint Depression Visibility Wind Speed Wind Dir Waves Ship Positions

Kristin D

Last reported at 2017-Jan-16 14:15 UTC. Time now 2017-Jan-22 20:26 UTC.
Position N 66°10' E 013°03'.

Length 90 m; draft 4.4 m.

Type: Cargo ship. MMSI: 311003700.

Date/timePositionNaut miles runAvg speedWind from/ knotsBaromVisibWave heightAir tempDewpointWater temp
2017-Jan-16 14:15N 66°10' E 013°03'7 9.3
2017-Jan-16 13:27N 66°12' E 012°46'910.0
2017-Jan-16 12:33N 66°15' E 012°25'1110.5
2017-Jan-16 11:33N 66°15' E 011°59'  
2017-Jan-13 07:15N 58°54' E 004°47'811.8
2017-Jan-13 06:33N 58°46' E 004°48'1211.7
2017-Jan-13 05:33N 58°35' E 004°50'26911.2
2017-Jan-12 05:33N 55°34' W 001°18'8 8.4
2017-Jan-12 04:34N 55°27' W 001°27'8 8.0
2017-Jan-12 03:33N 55°20' W 001°24'7 7.5
2017-Jan-12 02:34N 55°12' W 001°21'7 6.6
2017-Jan-12 01:34N 55°06' W 001°17'6 6.2
2017-Jan-12 00:34N 55°01' W 001°11'6 6.3
2017-Jan-11 23:33N 54°56' W 001°03'32 6.3
2017-Jan-11 18:31N 54°31' W 000°31'5 5.5
2017-Jan-11 17:34N 54°26' W 000°26'5 4.6
2017-Jan-11 16:34N 54°22' W 000°22'5 5.2
2017-Jan-11 15:34N 54°18' W 000°18'5 4.6
2017-Jan-11 14:33N 54°14' W 000°12'4 3.5
2017-Jan-11 13:34N 54°12' W 000°09'3 3.3
2017-Jan-11 12:33N 54°10' W 000°04'4 3.6
2017-Jan-11 11:33N 54°07' E 000°00'5 4.9
2017-Jan-11 10:34N 54°03' E 000°05'6711.1
2017-Jan-11 04:34N 53°10' E 001°12'1111.0
2017-Jan-11 03:33N 53°01' E 001°24'1212.1
2017-Jan-11 02:33N 52°53' E 001°38'1413.6
2017-Jan-11 01:33N 52°43' E 001°54'7612.5
2017-Jan-10 19:29N 51°45' E 003°12'1010.9
2017-Jan-10 18:33N 51°37' E 003°23'1111.2
2017-Jan-10 17:33N 51°27' E 003°32'1212.0
2017-Jan-10 16:31N 51°20' E 003°49'1 0.7
2017-Jan-10 15:33N 51°20' E 003°49'0 0.5
2017-Jan-10 14:32N 51°19' E 003°50'0 0.0
2017-Jan-10 13:29N 51°19' E 003°50'0 0.0
2017-Jan-10 12:32N 51°19' E 003°50'0 0.0
2017-Jan-10 11:29N 51°19' E 003°50'0 0.0
2017-Jan-10 10:29N 51°19' E 003°50'0 0.0
2017-Jan-10 09:32N 51°19' E 003°50'0 0.0
2017-Jan-10 08:32N 51°19' E 003°50'0 0.0
2017-Jan-10 07:32N 51°19' E 003°50'0 0.0
2017-Jan-10 06:32N 51°19' E 003°50'0 0.0
2017-Jan-10 05:32N 51°19' E 003°50'0 0.0
2017-Jan-10 04:26N 51°19' E 003°50'0 0.0
2017-Jan-10 03:29N 51°19' E 003°50'0 0.0
2017-Jan-10 02:29N 51°19' E 003°50'0 0.0
2017-Jan-10 01:26N 51°19' E 003°50'0 0.0
2017-Jan-10 00:29N 51°19' E 003°50'0 0.0
2017-Jan-09 23:29N 51°19' E 003°50'0 0.0
2017-Jan-09 22:28N 51°19' E 003°50'0 0.0
2017-Jan-09 21:31N 51°19' E 003°50'0 0.0
2017-Jan-09 20:31N 51°19' E 003°50'0 0.0
2017-Jan-09 19:28N 51°19' E 003°50'0 0.0
2017-Jan-09 18:31N 51°19' E 003°50'0 0.0
2017-Jan-09 17:28N 51°19' E 003°50'0 0.0
2017-Jan-09 16:28N 51°19' E 003°50'0 0.0
2017-Jan-09 15:25N 51°19' E 003°50'0 0.0
2017-Jan-09 14:28N 51°19' E 003°50'0 0.0
2017-Jan-09 13:28N 51°19' E 003°50'0 0.0
2017-Jan-09 12:31N 51°19' E 003°50'0 0.0
2017-Jan-09 11:28N 51°19' E 003°50'0 0.0
2017-Jan-09 10:31N 51°19' E 003°50'0 0.0
2017-Jan-09 09:28N 51°19' E 003°50'0 0.0
2017-Jan-09 08:31N 51°19' E 003°50'0 0.0
2017-Jan-09 07:31N 51°19' E 003°50'0 0.0
2017-Jan-09 06:31N 51°19' E 003°50'0 0.0
2017-Jan-09 05:19N 51°19' E 003°50'0 0.0
2017-Jan-09 04:31N 51°19' E 003°50'0 0.0
2017-Jan-09 03:31N 51°19' E 003°50'0 0.2
2017-Jan-09 02:33N 51°19' E 003°49'3 2.9
2017-Jan-09 01:33N 51°21' E 003°46'9 8.6
2017-Jan-09 00:33N 51°26' E 003°34'8 7.6
2017-Jan-08 23:33N 51°31' E 003°26'1010.2
2017-Jan-08 22:33N 51°40' E 003°18'7 5.8
2017-Jan-08 21:25N 51°46' E 003°14'4 4.1
2017-Jan-08 20:25N 51°50' E 003°16'51 9.5
2017-Jan-08 15:03N 52°40' E 003°34'711.8
2017-Jan-08 14:29N 52°45' E 003°41'2110.9
2017-Jan-08 12:31N 53°01' E 004°05'4410.9
2017-Jan-08 08:32N 53°38' E 004°41'1212.0
2017-Jan-08 07:31N 53°50' E 004°49'1111.8
2017-Jan-08 06:33N 54°00' E 004°56'26911.2
2017-Jan-07 06:33N 58°29' E 004°50'1110.9
2017-Jan-07 05:33N 58°40' E 004°48'1110.6
2017-Jan-07 04:33N 58°51' E 004°45'  

Dump ship's entire track history